createdAt,value
2018-07-23T00:01:02.432Z,26.90
2018-07-23T00:03:30.560Z,26.90
2018-07-23T00:05:58.753Z,26.90
2018-07-23T00:08:26.841Z,26.90
2018-07-23T00:10:55.023Z,26.90
2018-07-23T00:13:23.132Z,26.90
2018-07-23T00:15:51.237Z,26.90
2018-07-23T00:18:19.507Z,26.90
2018-07-23T00:20:47.584Z,26.90
2018-07-23T00:23:15.683Z,27.00
2018-07-23T00:25:43.778Z,27.00
2018-07-23T00:28:11.873Z,26.90
2018-07-23T00:30:39.967Z,27.00
2018-07-23T00:33:08.147Z,27.00
2018-07-23T00:35:36.240Z,27.00
2018-07-23T00:38:04.405Z,27.00
2018-07-23T00:40:32.579Z,27.00
2018-07-23T00:43:00.764Z,27.00
2018-07-23T00:45:28.868Z,27.00
2018-07-23T00:47:57.008Z,27.10
2018-07-23T00:50:25.112Z,27.10
2018-07-23T00:52:53.212Z,27.00
2018-07-23T00:55:21.339Z,27.10
2018-07-23T00:57:49.444Z,27.10
2018-07-23T01:00:17.553Z,27.10
2018-07-23T01:02:45.660Z,27.10
2018-07-23T01:05:13.764Z,27.10
2018-07-23T01:10:09.828Z,27.10
2018-07-23T01:12:38.060Z,27.10
2018-07-23T01:15:06.282Z,27.20
2018-07-23T01:17:34.566Z,27.20
2018-07-23T01:20:02.699Z,27.20
2018-07-23T01:22:30.858Z,27.20
2018-07-23T01:24:59.143Z,27.20
2018-07-23T01:27:27.220Z,27.20
2018-07-23T01:29:55.295Z,27.20
2018-07-23T01:32:23.383Z,27.20
2018-07-23T01:34:51.468Z,27.20
2018-07-23T01:37:19.660Z,27.20
2018-07-23T01:39:47.744Z,27.20
2018-07-23T01:42:15.852Z,27.20
2018-07-23T01:44:43.949Z,27.20
2018-07-23T01:47:12.065Z,27.20
2018-07-23T01:49:40.179Z,27.30
2018-07-23T01:52:08.299Z,27.30
2018-07-23T01:54:36.518Z,27.30
2018-07-23T01:57:04.729Z,27.30
2018-07-23T01:59:32.854Z,27.30
2018-07-23T02:02:01.064Z,27.30
2018-07-23T02:04:29.244Z,27.30
2018-07-23T02:06:57.360Z,27.30
2018-07-23T02:09:25.448Z,27.30
2018-07-23T02:11:53.542Z,27.30
2018-07-23T02:14:21.611Z,27.30
2018-07-23T02:16:49.684Z,27.30
2018-07-23T02:19:17.860Z,27.30
2018-07-23T02:21:45.952Z,27.30
2018-07-23T02:24:14.066Z,27.40
2018-07-23T02:26:42.177Z,27.40
2018-07-23T02:29:10.292Z,27.40
2018-07-23T02:31:38.401Z,27.40
2018-07-23T02:34:06.512Z,27.40
2018-07-23T02:36:34.628Z,27.40
2018-07-23T02:39:02.769Z,27.40
2018-07-23T02:41:30.893Z,27.40
2018-07-23T02:43:59.023Z,27.40
2018-07-23T02:46:27.115Z,27.40
2018-07-23T02:48:55.212Z,27.40
2018-07-23T02:51:23.304Z,27.40
2018-07-23T02:53:51.420Z,27.40
2018-07-23T02:56:19.497Z,27.40
2018-07-23T02:58:47.600Z,27.40
2018-07-23T03:01:15.732Z,27.40
2018-07-23T03:03:43.849Z,27.50
2018-07-23T03:06:11.973Z,27.50
2018-07-23T03:08:40.091Z,27.50
2018-07-23T03:11:08.377Z,27.50
2018-07-23T03:13:36.499Z,27.50
2018-07-23T03:16:04.632Z,27.50
2018-07-23T03:18:32.769Z,27.50
2018-07-23T03:21:00.889Z,27.50
2018-07-23T03:23:29.189Z,27.50
2018-07-23T03:25:57.248Z,27.50
2018-07-23T03:28:25.327Z,27.50
2018-07-23T03:30:53.453Z,27.50
2018-07-23T03:33:21.528Z,27.50
2018-07-23T03:35:49.578Z,27.50
2018-07-23T03:38:17.719Z,27.50
2018-07-23T03:40:45.844Z,27.50
2018-07-23T03:43:13.916Z,27.50
2018-07-23T03:45:41.985Z,27.50
2018-07-23T03:48:10.159Z,27.50
2018-07-23T03:50:38.268Z,27.50
2018-07-23T03:53:06.384Z,27.60
2018-07-23T03:55:34.483Z,27.60
2018-07-23T03:58:02.622Z,27.60
2018-07-23T04:00:30.749Z,27.60
2018-07-23T04:02:58.862Z,27.60
2018-07-23T04:05:26.937Z,27.60
2018-07-23T04:07:55.037Z,27.60
2018-07-23T04:10:23.151Z,27.60
2018-07-23T04:12:51.251Z,27.60
2018-07-23T04:15:19.328Z,27.60
2018-07-23T04:17:52.009Z,27.60
2018-07-23T04:20:20.092Z,27.60
2018-07-23T04:22:48.202Z,27.60
2018-07-23T04:25:16.359Z,27.60
2018-07-23T04:27:44.485Z,27.60
2018-07-23T04:30:12.653Z,27.60
2018-07-23T04:32:40.782Z,27.60
2018-07-23T04:35:08.897Z,27.60
2018-07-23T04:37:37.155Z,27.60
2018-07-23T04:40:05.304Z,27.60
2018-07-23T04:42:33.582Z,27.60
2018-07-23T04:45:01.777Z,27.60
2018-07-23T04:47:29.973Z,27.60
2018-07-23T04:49:58.118Z,27.60
2018-07-23T04:52:26.272Z,27.60
2018-07-23T04:54:54.345Z,27.60
2018-07-23T04:57:22.444Z,27.60
2018-07-23T04:59:50.543Z,27.60
2018-07-23T05:02:18.672Z,27.60
2018-07-23T05:04:46.801Z,27.60
2018-07-23T05:07:14.937Z,27.60
2018-07-23T05:09:43.398Z,27.60
2018-07-23T05:12:11.533Z,27.60
2018-07-23T05:17:07.640Z,27.60
2018-07-23T05:19:35.777Z,27.60
2018-07-23T05:22:03.874Z,27.60
2018-07-23T05:26:59.961Z,27.60
2018-07-23T05:29:28.021Z,27.60
2018-07-23T05:31:56.232Z,27.60
2018-07-23T05:34:24.376Z,27.60
2018-07-23T05:36:52.515Z,27.60
2018-07-23T05:39:20.595Z,27.60
2018-07-23T05:41:49.075Z,27.60
2018-07-23T05:44:17.169Z,27.50
2018-07-23T05:46:45.288Z,27.60
2018-07-23T05:49:13.372Z,27.60
2018-07-23T05:51:41.455Z,27.60
2018-07-23T05:54:09.619Z,27.60
2018-07-23T05:56:37.945Z,27.60
2018-07-23T05:59:06.288Z,27.60
2018-07-23T06:01:34.396Z,27.60
2018-07-23T06:04:03.633Z,27.60
2018-07-23T06:06:31.963Z,27.60
2018-07-23T06:09:00.250Z,27.60
2018-07-23T06:13:56.262Z,27.60
2018-07-23T06:16:24.323Z,27.60
2018-07-23T06:18:52.500Z,27.60
2018-07-23T06:21:20.609Z,27.60
2018-07-23T06:23:48.673Z,27.60
2018-07-23T06:26:16.756Z,27.60
2018-07-23T06:28:44.898Z,27.60
2018-07-23T06:31:13.035Z,27.60
2018-07-23T06:33:41.108Z,27.60
2018-07-23T06:36:09.190Z,27.60
2018-07-23T06:38:37.278Z,27.60
2018-07-23T06:41:05.552Z,27.60
2018-07-23T06:43:33.738Z,27.60
2018-07-23T06:46:01.960Z,27.60
2018-07-23T06:48:30.078Z,27.60
2018-07-23T06:50:58.188Z,27.60
2018-07-23T06:53:26.260Z,27.60
2018-07-23T06:55:54.331Z,27.60
2018-07-23T06:58:22.436Z,27.60
2018-07-23T07:00:50.612Z,27.60
2018-07-23T07:03:18.723Z,27.70
2018-07-23T07:05:46.892Z,27.70
2018-07-23T07:08:15.027Z,27.70
2018-07-23T07:10:43.101Z,27.70
2018-07-23T07:13:11.221Z,27.70
2018-07-23T07:15:39.345Z,27.70
2018-07-23T07:18:07.456Z,27.70
2018-07-23T07:20:35.564Z,27.70
2018-07-23T07:23:03.817Z,27.70
2018-07-23T07:25:31.974Z,27.70
2018-07-23T07:28:00.150Z,27.70
2018-07-23T07:30:28.363Z,27.70
2018-07-23T07:32:56.559Z,27.70
2018-07-23T07:35:24.656Z,27.70
2018-07-23T07:37:52.815Z,27.70
2018-07-23T07:40:20.878Z,27.70
2018-07-23T07:42:49.008Z,27.70
2018-07-23T07:45:17.262Z,27.70
2018-07-23T07:47:45.341Z,27.70
2018-07-23T07:50:13.520Z,27.80
2018-07-23T07:52:41.594Z,27.70
2018-07-23T07:55:09.658Z,27.70
2018-07-23T07:57:37.856Z,27.80
2018-07-23T08:00:06.088Z,27.80
2018-07-23T08:05:02.136Z,27.80
2018-07-23T08:07:30.289Z,27.80
2018-07-23T08:09:58.368Z,27.80
2018-07-23T08:12:26.494Z,27.80
2018-07-23T08:14:55.190Z,27.80
2018-07-23T08:17:23.415Z,27.80
2018-07-23T08:19:51.567Z,27.80
2018-07-23T08:22:19.672Z,27.80
2018-07-23T08:27:15.720Z,27.80
2018-07-23T08:34:39.605Z,27.80
2018-07-23T08:37:07.751Z,27.80
2018-07-23T08:39:35.816Z,27.80
2018-07-23T08:42:03.920Z,27.80
2018-07-23T08:44:32.059Z,27.80
2018-07-23T08:47:00.163Z,27.80
2018-07-23T08:49:28.234Z,27.80
2018-07-23T08:51:56.319Z,27.80
2018-07-23T08:54:24.384Z,27.80
2018-07-23T08:56:52.494Z,27.80
2018-07-23T08:59:20.735Z,27.80
2018-07-23T09:01:48.808Z,27.80
2018-07-23T09:04:16.888Z,27.80
2018-07-23T09:06:45.397Z,27.80
2018-07-23T09:14:09.933Z,27.90
2018-07-23T09:16:38.120Z,27.90
2018-07-23T09:19:06.208Z,27.90
2018-07-23T09:24:02.385Z,27.90
2018-07-23T09:26:30.587Z,27.90
2018-07-23T09:31:26.604Z,27.90
2018-07-23T09:33:54.695Z,27.90
2018-07-23T09:36:22.825Z,28.00
2018-07-23T09:38:50.916Z,27.90
2018-07-23T09:41:19.036Z,27.90
2018-07-23T09:43:47.116Z,28.00
2018-07-23T09:46:15.279Z,28.00
2018-07-23T09:48:43.364Z,28.00
2018-07-23T09:51:11.452Z,28.00
2018-07-23T09:53:39.608Z,28.00
2018-07-23T09:58:36.000Z,28.00
2018-07-23T10:01:09.589Z,28.00
2018-07-23T10:03:37.728Z,28.10
2018-07-23T10:06:05.817Z,28.00
2018-07-23T10:08:33.957Z,28.10
2018-07-23T10:11:02.204Z,28.10
2018-07-23T10:13:30.323Z,28.10
2018-07-23T10:15:58.415Z,28.10
2018-07-23T10:18:26.493Z,28.10
2018-07-23T10:20:54.598Z,28.10
2018-07-23T10:23:22.682Z,28.10
2018-07-23T10:25:50.908Z,28.10
2018-07-23T10:28:18.975Z,28.10
2018-07-23T10:30:47.064Z,28.10
2018-07-23T10:33:15.199Z,28.10
2018-07-23T10:35:43.321Z,28.10
2018-07-23T10:38:11.404Z,28.10
2018-07-23T10:40:39.476Z,28.10
2018-07-23T10:43:07.720Z,28.20
2018-07-23T10:45:35.876Z,28.20
2018-07-23T10:48:03.985Z,28.20
2018-07-23T10:50:32.134Z,28.20
2018-07-23T10:53:00.247Z,28.20
2018-07-23T10:55:28.352Z,28.20
2018-07-23T11:00:24.363Z,28.20
2018-07-23T11:02:52.492Z,28.20
2018-07-23T11:05:20.574Z,28.20
2018-07-23T11:07:48.652Z,28.20
2018-07-23T11:10:16.796Z,28.30
2018-07-23T11:12:44.889Z,28.30
2018-07-23T11:15:12.995Z,28.30
2018-07-23T11:17:41.092Z,28.20
2018-07-23T11:20:11.016Z,28.20
2018-07-23T11:22:39.422Z,28.20
2018-07-23T11:25:38.875Z,28.30
2018-07-23T11:27:35.832Z,28.20
2018-07-23T11:30:04.816Z,28.30
2018-07-23T11:32:33.046Z,28.30
2018-07-23T11:35:01.137Z,28.30
2018-07-23T11:37:29.262Z,28.30
2018-07-23T11:39:57.440Z,28.30
2018-07-23T11:42:25.538Z,28.30
2018-07-23T11:44:53.604Z,28.30
2018-07-23T11:47:21.710Z,28.30
2018-07-23T11:49:49.764Z,28.30
2018-07-23T11:52:17.822Z,28.30
2018-07-23T11:54:45.931Z,28.30
2018-07-23T11:57:14.216Z,28.30
2018-07-23T11:59:42.299Z,28.30
2018-07-23T12:02:10.419Z,28.30
2018-07-23T12:04:38.577Z,28.30
2018-07-23T12:07:07.108Z,28.30
2018-07-23T12:09:35.214Z,28.30
2018-07-23T12:12:03.301Z,28.30
2018-07-23T12:16:59.518Z,28.30
2018-07-23T12:19:27.580Z,28.30
2018-07-23T12:21:55.702Z,28.30
2018-07-23T12:24:23.776Z,28.30
2018-07-23T12:26:51.864Z,28.30
2018-07-23T12:29:20.206Z,28.30
2018-07-23T12:31:48.292Z,28.30
2018-07-23T12:34:16.372Z,28.30
2018-07-23T12:36:44.458Z,28.30
2018-07-23T12:39:12.996Z,28.30
2018-07-23T12:41:41.681Z,28.30
2018-07-23T12:44:10.197Z,28.30
2018-07-23T12:46:38.268Z,28.30
2018-07-23T12:49:06.761Z,28.30
2018-07-23T12:51:34.849Z,28.30
2018-07-23T12:54:02.950Z,28.30
2018-07-23T12:56:31.263Z,28.30
2018-07-23T12:58:59.462Z,28.30
2018-07-23T13:01:27.558Z,28.30
2018-07-23T13:03:55.660Z,28.30
2018-07-23T13:06:23.728Z,28.30
2018-07-23T13:08:51.818Z,28.30
2018-07-23T13:11:19.933Z,28.30
2018-07-23T13:13:48.026Z,28.30
2018-07-23T13:16:16.081Z,28.30
2018-07-23T13:18:44.204Z,28.30
2018-07-23T13:21:12.321Z,28.30
2018-07-23T13:23:40.400Z,28.30
2018-07-23T13:26:09.468Z,28.30
2018-07-23T13:28:37.574Z,28.30
2018-07-23T13:33:33.632Z,28.30
2018-07-23T13:36:01.842Z,28.30
2018-07-23T13:40:57.815Z,28.30
2018-07-23T13:43:26.045Z,28.30
2018-07-23T13:45:54.132Z,28.30
2018-07-23T13:48:22.225Z,28.30
2018-07-23T13:50:50.309Z,28.30
2018-07-23T13:53:18.416Z,28.30
2018-07-23T13:55:46.532Z,28.30
2018-07-23T13:58:14.612Z,28.30
2018-07-23T14:00:42.807Z,28.30
2018-07-23T14:03:10.881Z,28.30
2018-07-23T14:05:39.366Z,28.30
2018-07-23T14:08:07.624Z,28.30
2018-07-23T14:10:35.732Z,28.30
2018-07-23T14:13:03.849Z,28.30
2018-07-23T14:15:31.981Z,28.30
2018-07-23T14:18:00.565Z,28.30
2018-07-23T14:20:28.686Z,28.30
2018-07-23T14:22:56.770Z,28.30
2018-07-23T14:25:24.836Z,28.30
2018-07-23T14:27:53.204Z,28.30
2018-07-23T14:30:21.446Z,28.30
2018-07-23T14:32:49.399Z,28.30
2018-07-23T14:35:17.498Z,28.30
2018-07-23T14:37:45.608Z,28.30
2018-07-23T14:40:13.880Z,28.30
2018-07-23T14:42:41.969Z,28.30
2018-07-23T14:45:10.073Z,28.30
2018-07-23T14:47:38.178Z,28.30
2018-07-23T14:50:06.296Z,28.30
2018-07-23T14:52:34.631Z,28.30
2018-07-23T14:55:02.870Z,28.30
2018-07-23T14:57:31.031Z,28.30
2018-07-23T14:59:59.191Z,28.30
2018-07-23T15:02:27.280Z,28.30
2018-07-23T15:04:55.448Z,28.30
2018-07-23T15:07:23.504Z,28.30
2018-07-23T15:09:51.696Z,28.30
2018-07-23T15:12:19.784Z,28.30
2018-07-23T15:14:47.840Z,28.30
2018-07-23T15:17:15.938Z,28.30
2018-07-23T15:19:44.283Z,28.30
2018-07-23T15:22:12.479Z,28.30
2018-07-23T15:24:40.559Z,28.30
2018-07-23T15:27:08.688Z,28.30
2018-07-23T15:29:36.865Z,28.30
2018-07-23T15:32:05.035Z,28.30
2018-07-23T15:34:33.250Z,28.30
2018-07-23T15:37:01.477Z,28.30
2018-07-23T15:39:29.566Z,28.30
2018-07-23T15:41:57.709Z,28.30
2018-07-23T15:44:25.866Z,28.30
2018-07-23T15:46:53.863Z,28.30
2018-07-23T15:49:21.956Z,28.30
2018-07-23T15:51:50.050Z,28.30
2018-07-23T15:54:18.171Z,28.30
2018-07-23T15:56:46.232Z,28.20
2018-07-23T15:59:14.319Z,28.30
2018-07-23T16:01:42.434Z,28.30
2018-07-23T16:04:10.568Z,28.30
2018-07-23T16:06:38.699Z,28.30
2018-07-23T16:11:36.228Z,28.20
2018-07-23T16:14:04.607Z,28.30
2018-07-23T16:16:32.816Z,28.20
2018-07-23T16:19:00.940Z,28.30
2018-07-23T16:21:29.304Z,28.20
2018-07-23T16:23:57.388Z,28.20
2018-07-23T16:26:25.500Z,28.20
2018-07-23T16:31:22.030Z,28.20
2018-07-23T16:33:50.097Z,28.20
2018-07-23T16:36:18.175Z,28.20
2018-07-23T16:38:46.264Z,28.20
2018-07-23T16:41:14.303Z,28.20
2018-07-23T16:43:42.488Z,28.20
2018-07-23T16:48:38.460Z,28.20
2018-07-23T16:51:06.602Z,28.20
2018-07-23T16:53:34.721Z,28.20
2018-07-23T16:56:02.844Z,28.20
2018-07-23T16:58:31.100Z,28.20
2018-07-23T17:00:59.228Z,28.20
2018-07-23T17:03:27.296Z,28.20
2018-07-23T17:05:55.424Z,28.20
2018-07-23T17:08:23.676Z,28.20
2018-07-23T17:10:51.717Z,28.20
2018-07-23T17:13:19.804Z,28.20
2018-07-23T17:18:15.785Z,28.20
2018-07-23T17:20:43.839Z,28.20
2018-07-23T17:23:11.903Z,28.20
2018-07-23T17:25:39.989Z,28.20
2018-07-23T17:28:08.092Z,28.20
2018-07-23T17:33:04.166Z,28.20
2018-07-23T17:35:32.315Z,28.20
2018-07-23T17:40:28.279Z,28.20
2018-07-23T17:42:56.344Z,28.10
2018-07-23T17:45:24.448Z,28.10
2018-07-23T17:47:52.541Z,28.10
2018-07-23T17:50:21.304Z,28.10
2018-07-23T17:52:49.394Z,28.10
2018-07-23T17:57:45.468Z,28.10
2018-07-23T18:00:13.592Z,28.10
2018-07-23T18:02:41.938Z,28.10
2018-07-23T18:05:10.880Z,28.10
2018-07-23T18:07:39.162Z,28.10
2018-07-23T18:10:07.261Z,28.10
2018-07-23T18:12:35.418Z,28.00
2018-07-23T18:15:03.710Z,28.00
2018-07-23T18:17:31.842Z,28.00
2018-07-23T18:19:59.968Z,28.00
2018-07-23T18:22:28.048Z,28.00
2018-07-23T18:24:56.132Z,28.00
2018-07-23T18:27:24.268Z,28.00
2018-07-23T18:29:52.408Z,28.00
2018-07-23T18:32:20.544Z,28.00
2018-07-23T18:34:48.768Z,28.00
2018-07-23T18:37:16.888Z,28.00
2018-07-23T18:39:44.976Z,28.00
2018-07-23T18:42:13.130Z,28.00
2018-07-23T18:44:41.293Z,28.00
2018-07-23T18:47:09.437Z,28.00
2018-07-23T18:49:49.924Z,28.00
2018-07-23T18:52:18.709Z,28.00
2018-07-23T18:54:48.132Z,28.00
2018-07-23T18:57:17.644Z,28.00
2018-07-23T18:59:45.827Z,28.00
2018-07-23T19:02:15.092Z,28.00
2018-07-23T19:04:43.168Z,28.00
2018-07-23T19:07:11.310Z,28.00
2018-07-23T19:09:39.400Z,28.00
2018-07-23T19:12:08.468Z,28.00
2018-07-23T19:14:36.564Z,28.00
2018-07-23T19:17:05.954Z,28.00
2018-07-23T19:19:34.074Z,28.00
2018-07-23T19:22:02.199Z,28.00
2018-07-23T19:24:30.394Z,28.00
2018-07-23T19:29:26.428Z,28.00
2018-07-23T19:31:54.505Z,27.90
2018-07-23T19:34:22.619Z,27.90
2018-07-23T19:36:50.734Z,28.00
2018-07-23T19:39:20.009Z,27.90
2018-07-23T19:41:48.120Z,27.90
2018-07-23T19:44:16.200Z,27.90
2018-07-23T19:46:44.400Z,27.90
2018-07-23T19:49:12.472Z,27.90
2018-07-23T19:51:40.595Z,27.90
2018-07-23T19:54:09.191Z,27.90
2018-07-23T19:56:37.272Z,27.90
2018-07-23T19:59:05.561Z,27.90
2018-07-23T20:01:33.710Z,27.90
2018-07-23T20:04:01.816Z,27.90
2018-07-23T20:08:59.232Z,27.90
2018-07-23T20:11:28.920Z,27.90
2018-07-23T20:13:57.060Z,27.90
2018-07-23T20:16:25.231Z,27.90
2018-07-23T20:18:53.482Z,27.90
2018-07-23T20:21:21.704Z,27.90
2018-07-23T20:23:49.948Z,27.90
2018-07-23T20:26:18.246Z,27.90
2018-07-23T20:28:46.296Z,27.90
2018-07-23T20:31:14.462Z,27.90
2018-07-23T20:33:42.756Z,27.90
2018-07-23T20:36:11.131Z,27.90
2018-07-23T20:38:39.189Z,27.90
2018-07-23T20:41:07.372Z,27.90
2018-07-23T20:43:35.552Z,27.90
2018-07-23T20:46:03.877Z,27.80
2018-07-23T20:48:32.008Z,27.80
2018-07-23T20:51:00.285Z,27.90
2018-07-23T20:53:28.383Z,27.80
2018-07-23T20:55:56.462Z,27.80
2018-07-23T20:58:24.576Z,27.80
2018-07-23T21:00:52.624Z,27.80
2018-07-23T21:03:20.721Z,27.80
2018-07-23T21:05:48.795Z,27.80
2018-07-23T21:08:16.887Z,27.80
2018-07-23T21:10:45.075Z,27.80
2018-07-23T21:13:13.248Z,27.80
2018-07-23T21:15:41.348Z,27.80
2018-07-23T21:18:09.785Z,27.80
2018-07-23T21:23:06.166Z,27.80
2018-07-23T21:25:34.320Z,27.80
2018-07-23T21:28:02.645Z,27.80
2018-07-23T21:30:30.975Z,27.80
2018-07-23T21:32:59.121Z,27.80
2018-07-23T21:35:27.204Z,27.80
2018-07-23T21:37:55.311Z,27.80
2018-07-23T21:40:23.435Z,27.80
2018-07-23T21:42:51.887Z,27.80
2018-07-23T21:45:20.032Z,27.80
2018-07-23T21:47:48.157Z,27.80
2018-07-23T21:50:16.282Z,27.80
2018-07-23T21:52:44.336Z,27.80
2018-07-23T21:55:12.496Z,27.80
2018-07-23T21:57:40.855Z,27.80
2018-07-23T22:00:13.386Z,27.80
2018-07-23T22:02:41.645Z,27.80
2018-07-23T22:05:09.901Z,27.80
2018-07-23T22:07:38.473Z,27.80
2018-07-23T22:10:07.526Z,27.80
2018-07-23T22:12:35.781Z,27.80
2018-07-23T22:15:05.197Z,27.80
2018-07-23T22:17:33.330Z,27.80
2018-07-23T22:20:01.429Z,27.80
2018-07-23T22:22:29.615Z,27.80
2018-07-23T22:24:57.780Z,27.80
2018-07-23T22:27:25.860Z,27.80
2018-07-23T22:29:53.948Z,27.80
2018-07-23T22:32:22.064Z,27.80
2018-07-23T22:34:50.136Z,27.80
2018-07-23T22:37:18.560Z,27.80
2018-07-23T22:39:46.657Z,27.70
2018-07-23T22:42:14.776Z,27.70
2018-07-23T22:44:46.460Z,27.70
2018-07-23T22:47:14.592Z,27.70
2018-07-23T22:49:42.659Z,27.70
2018-07-23T22:52:10.730Z,27.70
2018-07-23T22:54:38.872Z,27.70
2018-07-23T22:57:07.100Z,27.70
2018-07-23T22:59:35.284Z,27.70
2018-07-23T23:02:03.420Z,27.70
2018-07-23T23:04:31.520Z,27.70
2018-07-23T23:09:27.656Z,27.70
2018-07-23T23:11:55.732Z,27.70
2018-07-23T23:14:23.825Z,27.70
2018-07-23T23:16:51.927Z,27.70
2018-07-23T23:19:20.039Z,27.70
2018-07-23T23:21:48.176Z,27.70
2018-07-23T23:24:16.236Z,27.70
2018-07-23T23:26:44.314Z,27.70
2018-07-23T23:29:12.456Z,27.70
2018-07-23T23:31:40.520Z,27.70
2018-07-23T23:34:08.695Z,27.70
2018-07-23T23:36:36.760Z,27.60
2018-07-23T23:39:07.780Z,27.60
2018-07-23T23:41:35.868Z,27.60
2018-07-23T23:44:03.956Z,27.60
2018-07-23T23:46:32.068Z,27.60
2018-07-23T23:49:00.172Z,27.60
2018-07-23T23:51:28.258Z,27.60
2018-07-23T23:53:56.416Z,27.60
2018-07-23T23:56:24.471Z,27.60
2018-07-23T23:58:52.540Z,27.60
